createdAt,value
2019-04-26T00:02:18.538Z,98002.41
2019-04-26T00:04:50.610Z,97992.42
2019-04-26T00:07:24.197Z,97992.73
2019-04-26T00:09:58.798Z,97987.25
2019-04-26T00:12:42.322Z,97988.56
2019-04-26T00:15:32.162Z,97995.50
2019-04-26T00:18:04.801Z,97987.56
2019-04-26T00:20:36.811Z,97985.67
2019-04-26T00:23:10.624Z,97976.14
2019-04-26T00:25:42.841Z,97975.02
2019-04-26T00:28:14.806Z,97979.23
2019-04-26T00:30:47.003Z,97973.77
2019-04-26T00:33:19.408Z,97967.41
2019-04-26T00:35:51.550Z,97966.53
2019-04-26T00:38:23.563Z,97967.36
2019-04-26T00:40:56.980Z,97965.09
2019-04-26T00:43:31.292Z,97961.08
2019-04-26T00:46:05.386Z,97964.20
2019-04-26T00:48:39.727Z,97962.69
2019-04-26T00:51:12.796Z,97948.11
2019-04-26T00:53:47.378Z,97948.68
2019-04-26T00:56:20.212Z,97941.95
2019-04-26T00:58:52.540Z,97945.45
2019-04-26T01:01:26.489Z,97949.00
2019-04-26T01:03:58.610Z,97939.77
2019-04-26T01:06:32.298Z,97940.61
2019-04-26T01:09:05.346Z,97944.04
2019-04-26T01:11:37.389Z,97937.82
2019-04-26T01:14:10.050Z,97936.16
2019-04-26T01:16:42.164Z,97931.23
2019-04-26T01:19:15.956Z,97929.02
2019-04-26T01:21:54.687Z,97928.89
2019-04-26T01:24:28.136Z,97927.32
2019-04-26T01:27:02.969Z,97918.33
2019-04-26T01:29:37.542Z,97920.63
2019-04-26T01:32:13.170Z,97915.61
2019-04-26T01:34:47.873Z,97916.45
2019-04-26T01:37:20.667Z,97911.11
2019-04-26T01:39:58.271Z,97915.11
2019-04-26T01:43:07.711Z,97911.86
2019-04-26T01:46:01.415Z,97910.66
2019-04-26T01:48:47.106Z,97902.12
2019-04-26T01:51:37.122Z,97904.34
2019-04-26T01:54:10.532Z,97910.13
2019-04-26T01:56:42.596Z,97901.62
2019-04-26T01:59:17.544Z,97899.58
2019-04-26T02:02:07.305Z,97904.59
2019-04-26T02:04:42.778Z,97900.80
2019-04-26T02:07:16.919Z,97893.36
2019-04-26T02:09:48.897Z,97886.67
2019-04-26T02:12:22.444Z,97878.91
2019-04-26T02:14:55.093Z,97880.37
2019-04-26T02:17:27.275Z,97877.58
2019-04-26T02:20:00.658Z,97877.08
2019-04-26T02:23:09.040Z,97874.77
2019-04-26T02:25:41.350Z,97869.96
2019-04-26T02:28:13.306Z,97863.02
2019-04-26T02:30:45.511Z,97857.30
2019-04-26T02:33:17.838Z,97860.66
2019-04-26T02:35:49.821Z,97858.20
2019-04-26T02:38:22.081Z,97858.02
2019-04-26T02:40:55.007Z,97850.05
2019-04-26T02:43:28.612Z,97862.07
2019-04-26T02:46:22.519Z,97854.06
2019-04-26T02:49:21.818Z,97843.37
2019-04-26T02:52:37.155Z,97842.16
2019-04-26T02:55:27.903Z,97838.99
2019-04-26T02:58:01.042Z,97830.44
2019-04-26T03:00:35.160Z,97826.97
2019-04-26T03:03:09.458Z,97824.80
2019-04-26T03:05:44.046Z,97829.06
2019-04-26T03:08:19.018Z,97825.38
2019-04-26T03:10:59.937Z,97820.19
2019-04-26T03:13:56.831Z,97826.78
2019-04-26T03:16:44.313Z,97822.72
2019-04-26T03:19:40.910Z,97822.84
2019-04-26T03:22:44.414Z,97824.50
2019-04-26T03:25:28.523Z,97824.55
2019-04-26T03:28:43.758Z,97816.47
2019-04-26T03:31:52.335Z,97822.16
2019-04-26T03:34:38.840Z,97807.84
2019-04-26T03:38:05.403Z,97814.06
2019-04-26T03:40:57.644Z,97817.45
2019-04-26T03:44:04.868Z,97814.33
2019-04-26T03:47:03.071Z,97817.16
2019-04-26T03:50:18.340Z,97816.66
2019-04-26T03:53:13.983Z,97817.47
2019-04-26T03:56:48.393Z,97825.07
2019-04-26T03:59:55.865Z,97825.67
2019-04-26T04:03:10.180Z,97816.73
2019-04-26T04:05:48.688Z,97822.10
2019-04-26T04:08:30.715Z,97820.04
2019-04-26T04:11:09.257Z,97813.63
2019-04-26T04:14:00.028Z,97817.41
2019-04-26T04:17:17.818Z,97814.25
2019-04-26T04:20:56.431Z,97811.36
2019-04-26T04:24:16.277Z,97812.20
2019-04-26T04:27:23.281Z,97804.66
2019-04-26T04:30:27.807Z,97808.45
2019-04-26T04:33:29.557Z,97813.87
2019-04-26T04:36:19.236Z,97809.12
2019-04-26T04:39:21.867Z,97804.02
2019-04-26T04:42:45.742Z,97802.55
2019-04-26T04:46:05.075Z,97794.59
2019-04-26T04:49:32.168Z,97808.45
2019-04-26T04:52:53.762Z,97795.02
2019-04-26T04:55:50.244Z,97804.79
2019-04-26T04:58:34.224Z,97810.42
2019-04-26T05:02:29.178Z,97804.18
2019-04-26T05:06:07.749Z,97802.25
2019-04-26T05:09:07.708Z,97804.14
2019-04-26T05:12:19.430Z,97795.19
2019-04-26T05:15:41.801Z,97790.24
2019-04-26T05:19:27.533Z,97785.17
2019-04-26T05:22:40.844Z,97779.51
2019-04-26T05:26:37.078Z,97782.42
2019-04-26T05:30:04.233Z,97782.45
2019-04-26T05:33:25.223Z,97785.46
2019-04-26T05:36:59.017Z,97768.94
2019-04-26T05:40:47.053Z,97758.69
2019-04-26T05:44:15.768Z,97764.14
2019-04-26T05:47:40.464Z,97756.16
2019-04-26T05:51:31.126Z,97763.36
2019-04-26T05:55:11.223Z,97754.84
2019-04-26T05:58:30.200Z,97752.81
2019-04-26T06:02:08.676Z,97751.67
2019-04-26T06:05:16.016Z,97760.84
2019-04-26T06:08:43.284Z,97753.05
2019-04-26T06:11:29.071Z,97761.80
2019-04-26T06:14:36.940Z,97757.58
2019-04-26T06:18:24.885Z,97754.09
2019-04-26T06:21:34.986Z,97751.37
2019-04-26T06:24:32.328Z,97755.77
2019-04-26T06:27:49.905Z,97750.34
2019-04-26T06:30:45.025Z,97751.91
2019-04-26T06:33:45.143Z,97741.89
2019-04-26T06:36:25.034Z,97742.34
2019-04-26T06:39:37.434Z,97728.30
2019-04-26T06:43:44.642Z,97729.72
2019-04-26T06:46:56.298Z,97718.61
2019-04-26T06:50:10.710Z,97714.32
2019-04-26T06:53:01.571Z,97709.58
2019-04-26T06:55:49.314Z,97705.62
2019-04-26T06:59:08.411Z,97702.85
2019-04-26T07:02:08.608Z,97707.08
2019-04-26T07:05:15.389Z,97715.16
2019-04-26T07:08:57.284Z,97714.20
2019-04-26T07:12:34.113Z,97717.03
2019-04-26T07:15:37.654Z,97710.95
2019-04-26T07:19:13.344Z,97708.16
2019-04-26T07:22:50.987Z,97710.15
2019-04-26T07:26:16.068Z,97710.25
2019-04-26T07:29:30.056Z,97714.23
2019-04-26T07:33:18.572Z,97714.50
2019-04-26T07:36:29.813Z,97703.03
2019-04-26T07:40:17.835Z,97707.16
2019-04-26T07:43:19.168Z,97712.34
2019-04-26T07:46:37.699Z,97702.24
2019-04-26T07:50:07.587Z,97704.07
2019-04-26T07:53:52.296Z,97690.98
2019-04-26T07:57:04.609Z,97680.12
2019-04-26T08:00:20.652Z,97678.69
2019-04-26T08:03:22.100Z,97675.63
2019-04-26T08:06:05.798Z,97667.78
2019-04-26T08:08:52.305Z,97658.34
2019-04-26T08:11:41.308Z,97658.72
2019-04-26T08:14:40.906Z,97664.82
2019-04-26T08:17:30.966Z,97649.38
2019-04-26T08:20:43.076Z,97652.97
2019-04-26T08:23:42.273Z,97649.73
2019-04-26T08:26:15.508Z,97645.86
2019-04-26T08:28:51.233Z,97650.51
2019-04-26T08:31:27.552Z,97651.66
2019-04-26T08:34:06.068Z,97647.30
2019-04-26T08:36:48.110Z,97640.34
2019-04-26T08:39:32.510Z,97637.92
2019-04-26T08:42:03.368Z,97643.87
2019-04-26T08:45:08.870Z,97639.89
2019-04-26T08:47:57.289Z,97626.73
2019-04-26T08:50:38.370Z,97633.66
2019-04-26T08:53:11.649Z,97630.28
2019-04-26T08:55:45.896Z,97631.86
2019-04-26T08:58:21.020Z,97623.58
2019-04-26T09:01:06.591Z,97628.17
2019-04-26T09:03:57.622Z,97623.33
2019-04-26T09:06:57.654Z,97625.92
2019-04-26T09:09:34.640Z,97621.39
2019-04-26T09:12:22.533Z,97617.25
2019-04-26T09:14:52.435Z,97613.98
2019-04-26T09:17:27.673Z,97622.30
2019-04-26T09:19:58.350Z,97618.06
2019-04-26T09:22:44.886Z,97623.19
2019-04-26T09:25:30.257Z,97605.46
2019-04-26T09:28:07.621Z,97609.92
2019-04-26T09:30:58.423Z,97611.92
2019-04-26T09:33:39.455Z,97601.63
2019-04-26T09:36:11.651Z,97593.30
2019-04-26T09:38:43.635Z,97607.39
2019-04-26T09:41:15.637Z,97606.94
2019-04-26T09:43:54.910Z,97597.30
2019-04-26T09:46:44.431Z,97598.70
2019-04-26T09:49:32.693Z,97589.15
2019-04-26T09:52:06.469Z,97598.35
2019-04-26T09:54:38.448Z,97593.52
2019-04-26T09:57:10.423Z,97583.20
2019-04-26T09:59:42.415Z,97590.25
2019-04-26T10:02:14.619Z,97593.48
2019-04-26T10:04:46.579Z,97589.42
2019-04-26T10:07:18.580Z,97582.96
2019-04-26T10:09:51.733Z,97583.71
2019-04-26T10:12:33.538Z,97583.72
2019-04-26T10:15:22.542Z,97580.85
2019-04-26T10:17:53.761Z,97574.81
2019-04-26T10:20:25.900Z,97563.13
2019-04-26T10:22:57.860Z,97573.23
2019-04-26T10:25:29.830Z,97563.81
2019-04-26T10:28:01.848Z,97569.22
2019-04-26T10:30:33.807Z,97574.16
2019-04-26T10:33:05.814Z,97566.69
2019-04-26T10:35:37.788Z,97566.05
2019-04-26T10:38:10.168Z,97576.77
2019-04-26T10:40:42.258Z,97567.09
2019-04-26T10:43:14.295Z,97566.98
2019-04-26T10:45:53.523Z,97564.02
2019-04-26T10:48:23.074Z,97565.23
2019-04-26T10:50:54.358Z,97553.76
2019-04-26T10:53:50.385Z,97561.13
2019-04-26T10:56:46.880Z,97549.08
2019-04-26T10:59:39.903Z,97541.56
2019-04-26T11:02:15.799Z,97556.80
2019-04-26T11:04:47.888Z,97558.93
2019-04-26T11:07:20.242Z,97542.34
2019-04-26T11:09:52.240Z,97543.89
2019-04-26T11:12:24.208Z,97532.59
2019-04-26T11:14:56.911Z,97543.33
2019-04-26T11:17:29.285Z,97542.19
2019-04-26T11:20:01.717Z,97540.07
2019-04-26T11:22:37.507Z,97543.46
2019-04-26T11:25:07.628Z,97552.50
2019-04-26T11:27:40.256Z,97554.66
2019-04-26T11:30:20.582Z,97553.83
2019-04-26T11:32:47.728Z,97545.44
2019-04-26T11:35:20.216Z,97548.45
2019-04-26T11:37:55.298Z,97550.58
2019-04-26T11:40:26.083Z,97547.89
2019-04-26T11:42:58.369Z,97543.59
2019-04-26T11:45:30.869Z,97551.86
2019-04-26T11:48:03.351Z,97558.06
2019-04-26T11:50:35.616Z,97555.59
2019-04-26T11:53:10.250Z,97561.08
2019-04-26T11:55:41.381Z,97566.40
2019-04-26T11:58:13.373Z,97569.52
2019-04-26T12:00:50.489Z,97575.96
2019-04-26T12:03:24.945Z,97570.33
2019-04-26T12:06:22.641Z,97562.40
2019-04-26T12:09:01.484Z,97552.86
2019-04-26T12:11:35.280Z,97546.40
2019-04-26T12:14:19.378Z,97555.05
2019-04-26T12:16:48.082Z,97553.83
2019-04-26T12:19:18.253Z,97573.58
2019-04-26T12:21:48.710Z,97559.98
2019-04-26T12:24:20.752Z,97562.25
2019-04-26T12:26:56.026Z,97559.59
2019-04-26T12:29:26.432Z,97560.57
2019-04-26T12:31:58.800Z,97568.88
2019-04-26T12:34:31.127Z,97566.20
2019-04-26T12:37:03.263Z,97555.71
2019-04-26T12:39:36.625Z,97563.08
2019-04-26T12:42:12.236Z,97568.32
2019-04-26T12:45:12.263Z,97555.89
2019-04-26T12:47:51.630Z,97567.61
2019-04-26T12:50:23.601Z,97564.11
2019-04-26T12:52:56.073Z,97557.53
2019-04-26T12:55:29.317Z,97560.08
2019-04-26T12:58:01.481Z,97559.11
2019-04-26T13:00:37.608Z,97556.22
2019-04-26T13:03:19.737Z,97558.53
2019-04-26T13:05:41.382Z,97546.23
2019-04-26T13:08:17.085Z,97552.13
2019-04-26T13:11:07.997Z,97549.36
2019-04-26T13:13:55.279Z,97541.60
2019-04-26T13:16:35.375Z,97527.34
2019-04-26T13:19:07.404Z,97530.69
2019-04-26T13:21:40.083Z,97527.84
2019-04-26T13:24:12.279Z,97521.66
2019-04-26T13:26:44.403Z,97530.61
2019-04-26T13:29:16.401Z,97530.42
2019-04-26T13:31:48.462Z,97530.73
2019-04-26T13:34:20.825Z,97514.77
2019-04-26T13:36:52.803Z,97535.89
2019-04-26T13:39:25.787Z,97530.41
2019-04-26T13:42:04.538Z,97536.94
2019-04-26T13:44:49.178Z,97524.44
2019-04-26T13:47:40.013Z,97535.49
2019-04-26T13:50:26.658Z,97536.78
2019-04-26T13:52:59.470Z,97522.43
2019-04-26T13:55:33.769Z,97521.38
2019-04-26T13:58:05.503Z,97517.19
2019-04-26T14:00:39.791Z,97510.79
2019-04-26T14:03:11.711Z,97512.88
2019-04-26T14:05:43.705Z,97509.89
2019-04-26T14:08:17.651Z,97508.87
2019-04-26T14:10:51.359Z,97521.57
2019-04-26T14:13:25.046Z,97510.91
2019-04-26T14:15:57.243Z,97519.48
2019-04-26T14:18:29.289Z,97529.37
2019-04-26T14:21:01.876Z,97519.23
2019-04-26T14:24:01.860Z,97514.48
2019-04-26T14:26:39.983Z,97519.08
2019-04-26T14:29:11.311Z,97517.67
2019-04-26T14:31:43.398Z,97520.89
2019-04-26T14:34:15.421Z,97517.22
2019-04-26T14:36:47.496Z,97512.14
2019-04-26T14:39:21.082Z,97519.08
2019-04-26T14:41:57.125Z,97523.81
2019-04-26T14:44:27.137Z,97509.29
2019-04-26T14:47:13.175Z,97514.30
2019-04-26T14:49:39.196Z,97500.77
2019-04-26T14:52:08.986Z,97513.92
2019-04-26T14:54:45.885Z,97502.09
2019-04-26T14:57:22.515Z,97503.55
2019-04-26T14:59:56.720Z,97506.48
2019-04-26T15:03:05.463Z,97508.14
2019-04-26T15:05:59.080Z,97502.35
2019-04-26T15:08:32.589Z,97489.13
2019-04-26T15:11:05.150Z,97490.89
2019-04-26T15:13:40.344Z,97484.48
2019-04-26T15:16:13.693Z,97491.59
2019-04-26T15:18:45.110Z,97492.95
2019-04-26T15:21:17.145Z,97490.22
2019-04-26T15:23:49.179Z,97483.06
2019-04-26T15:26:24.236Z,97483.47
2019-04-26T15:28:54.949Z,97475.25
2019-04-26T15:31:26.939Z,97481.65
2019-04-26T15:33:58.946Z,97474.61
2019-04-26T15:36:31.275Z,97481.92
2019-04-26T15:39:05.089Z,97475.77
2019-04-26T15:41:54.346Z,97473.50
2019-04-26T15:44:48.139Z,97476.64
2019-04-26T15:47:34.343Z,97475.52
2019-04-26T15:50:23.209Z,97477.61
2019-04-26T15:52:55.401Z,97473.00
2019-04-26T15:55:27.387Z,97477.58
2019-04-26T15:58:02.692Z,97475.07
2019-04-26T16:00:35.439Z,97477.69
2019-04-26T16:03:07.487Z,97477.18
2019-04-26T16:05:40.040Z,97475.31
2019-04-26T16:08:13.044Z,97471.30
2019-04-26T16:10:45.168Z,97472.66
2019-04-26T16:13:20.926Z,97469.70
2019-04-26T16:15:51.381Z,97467.80
2019-04-26T16:18:23.376Z,97463.92
2019-04-26T16:20:55.407Z,97461.31
2019-04-26T16:23:38.377Z,97464.22
2019-04-26T16:26:02.636Z,97463.69
2019-04-26T16:28:53.597Z,97455.00
2019-04-26T16:31:35.469Z,97458.77
2019-04-26T16:34:11.666Z,97456.77
2019-04-26T16:36:45.234Z,97459.59
2019-04-26T16:39:19.703Z,97453.86
2019-04-26T16:41:52.375Z,97447.28
2019-04-26T16:44:29.857Z,97449.41
2019-04-26T16:47:01.734Z,97458.64
2019-04-26T16:49:35.062Z,97454.72
2019-04-26T16:52:07.255Z,97455.25
2019-04-26T16:54:40.608Z,97461.72
2019-04-26T16:57:13.981Z,97464.17
2019-04-26T16:59:49.179Z,97463.28
2019-04-26T17:02:25.555Z,97462.66
2019-04-26T17:04:54.084Z,97468.86
2019-04-26T17:07:27.455Z,97474.33
2019-04-26T17:10:00.329Z,97469.91
2019-04-26T17:12:33.159Z,97471.19
2019-04-26T17:15:06.018Z,97471.78
2019-04-26T17:17:41.263Z,97477.20
2019-04-26T17:20:11.999Z,97478.87
2019-04-26T17:22:57.003Z,97476.22
2019-04-26T17:25:49.493Z,97484.66
2019-04-26T17:28:23.028Z,97488.56
2019-04-26T17:30:55.473Z,97493.97
2019-04-26T17:33:28.209Z,97499.16
2019-04-26T17:36:01.234Z,97504.16
2019-04-26T17:38:35.179Z,97504.05
2019-04-26T17:41:10.930Z,97510.72
2019-04-26T17:43:46.950Z,97512.49
2019-04-26T17:46:17.936Z,97516.75
2019-04-26T17:48:49.410Z,97519.49
2019-04-26T17:51:23.226Z,97523.44
2019-04-26T17:54:18.925Z,97530.11
2019-04-26T17:56:31.462Z,97533.19
2019-04-26T17:59:08.962Z,97534.23
2019-04-26T18:01:45.204Z,97537.61
2019-04-26T18:04:11.271Z,97544.42
2019-04-26T18:06:45.381Z,97545.59
2019-04-26T18:09:38.247Z,97545.77
2019-04-26T18:11:51.234Z,97549.84
2019-04-26T18:14:29.650Z,97552.73
2019-04-26T18:17:07.837Z,97552.22
2019-04-26T18:19:53.475Z,97561.53
2019-04-26T18:22:53.125Z,97559.16
2019-04-26T18:25:25.350Z,97555.77
2019-04-26T18:27:57.363Z,97555.78
2019-04-26T18:30:30.101Z,97561.47
2019-04-26T18:33:02.932Z,97566.55
2019-04-26T18:35:35.092Z,97564.50
2019-04-26T18:38:08.520Z,97571.58
2019-04-26T18:40:58.919Z,97566.01
2019-04-26T18:43:18.888Z,97563.14
2019-04-26T18:45:50.074Z,97564.80
2019-04-26T18:48:23.646Z,97560.58
2019-04-26T18:50:56.015Z,97560.41
2019-04-26T18:53:47.207Z,97567.47
2019-04-26T18:56:19.393Z,97573.36
2019-04-26T18:58:51.670Z,97569.48
2019-04-26T19:01:23.828Z,97569.97
2019-04-26T19:03:55.847Z,97574.70
2019-04-26T19:06:31.855Z,97571.63
2019-04-26T19:09:05.659Z,97572.48
2019-04-26T19:11:35.722Z,97574.49
2019-04-26T19:14:26.699Z,97575.94
2019-04-26T19:17:22.055Z,97576.24
2019-04-26T19:20:11.565Z,97575.70
2019-04-26T19:22:52.008Z,97583.10
2019-04-26T19:25:23.877Z,97577.87
2019-04-26T19:27:58.699Z,97579.53
2019-04-26T19:30:29.541Z,97580.53
2019-04-26T19:33:02.063Z,97576.81
2019-04-26T19:35:34.257Z,97575.25
2019-04-26T19:38:07.512Z,97576.05
2019-04-26T19:40:46.064Z,97577.05
2019-04-26T19:43:27.713Z,97577.55
2019-04-26T19:46:12.763Z,97572.83
2019-04-26T19:49:09.825Z,97580.73
2019-04-26T19:52:03.895Z,97582.36
2019-04-26T19:54:42.722Z,97584.27
2019-04-26T19:57:18.764Z,97580.61
2019-04-26T19:59:52.597Z,97578.36
2019-04-26T20:02:35.821Z,97582.70
2019-04-26T20:05:02.350Z,97586.20
2019-04-26T20:07:34.876Z,97583.91
2019-04-26T20:10:07.056Z,97576.91
2019-04-26T20:12:39.037Z,97580.86
2019-04-26T20:15:25.348Z,97584.41
2019-04-26T20:17:52.513Z,97581.84
2019-04-26T20:20:23.233Z,97582.36
2019-04-26T20:22:54.430Z,97581.31
2019-04-26T20:25:26.407Z,97584.13
2019-04-26T20:28:03.169Z,97587.11
2019-04-26T20:31:07.683Z,97580.98
2019-04-26T20:33:37.231Z,97585.00
2019-04-26T20:36:09.235Z,97577.05
2019-04-26T20:38:45.639Z,97590.64
2019-04-26T20:41:15.164Z,97593.39
2019-04-26T20:44:02.423Z,97587.45
2019-04-26T20:46:24.883Z,97589.70
2019-04-26T20:48:54.976Z,97590.38
2019-04-26T20:51:27.012Z,97585.36
2019-04-26T20:53:59.043Z,97577.22
2019-04-26T20:56:31.743Z,97575.32
2019-04-26T20:59:04.706Z,97573.42
2019-04-26T21:01:36.673Z,97571.69
2019-04-26T21:04:08.685Z,97574.26
2019-04-26T21:06:41.124Z,97578.06
2019-04-26T21:09:17.801Z,97566.83
2019-04-26T21:11:51.507Z,97569.59
2019-04-26T21:14:23.600Z,97573.12
2019-04-26T21:16:55.591Z,97583.32
2019-04-26T21:19:27.646Z,97579.21
2019-04-26T21:22:00.164Z,97581.70
2019-04-26T21:24:36.761Z,97578.81
2019-04-26T21:27:25.877Z,97586.05
2019-04-26T21:30:17.120Z,97585.64
2019-04-26T21:33:16.905Z,97587.55
2019-04-26T21:36:07.286Z,97581.83
2019-04-26T21:38:47.445Z,97586.06
2019-04-26T21:41:25.424Z,97595.75
2019-04-26T21:43:57.410Z,97596.64
2019-04-26T21:46:29.516Z,97596.59
2019-04-26T21:49:01.560Z,97593.59
2019-04-26T21:51:34.079Z,97595.66
2019-04-26T21:54:06.367Z,97594.88
2019-04-26T21:56:42.766Z,97596.69
2019-04-26T21:59:13.818Z,97594.36
2019-04-26T22:01:48.346Z,97596.30
2019-04-26T22:04:20.241Z,97599.49
2019-04-26T22:06:53.470Z,97592.58
2019-04-26T22:09:47.767Z,97599.56
2019-04-26T22:12:20.931Z,97597.45
2019-04-26T22:15:01.057Z,97602.11
2019-04-26T22:17:40.654Z,97605.81
2019-04-26T22:20:29.933Z,97604.53
2019-04-26T22:23:25.400Z,97609.27
2019-04-26T22:26:00.199Z,97610.40
2019-04-26T22:28:35.949Z,97617.33
2019-04-26T22:31:08.505Z,97607.16
2019-04-26T22:33:38.998Z,97602.88
2019-04-26T22:36:13.033Z,97608.82
2019-04-26T22:38:44.918Z,97604.22
2019-04-26T22:41:16.838Z,97607.27
2019-04-26T22:43:59.833Z,97605.45
2019-04-26T22:46:49.743Z,97605.15
2019-04-26T22:49:23.205Z,97601.68
2019-04-26T22:51:55.251Z,97606.07
2019-04-26T22:54:27.268Z,97614.64
2019-04-26T22:56:59.231Z,97607.70
2019-04-26T22:59:31.277Z,97611.13
2019-04-26T23:02:04.310Z,97613.61
2019-04-26T23:04:36.275Z,97604.05
2019-04-26T23:07:09.533Z,97610.95
2019-04-26T23:09:45.782Z,97608.99
2019-04-26T23:12:53.975Z,97610.53
2019-04-26T23:15:43.245Z,97603.03
2019-04-26T23:18:34.246Z,97599.56
2019-04-26T23:21:27.334Z,97605.48
2019-04-26T23:23:59.337Z,97605.91
2019-04-26T23:26:31.403Z,97609.14
2019-04-26T23:29:03.810Z,97612.55
2019-04-26T23:31:37.475Z,97613.57
2019-04-26T23:34:09.798Z,97606.50
2019-04-26T23:36:43.578Z,97609.73
2019-04-26T23:39:15.606Z,97614.87
2019-04-26T23:41:47.535Z,97604.88
2019-04-26T23:44:19.980Z,97607.02
2019-04-26T23:46:54.964Z,97609.19
2019-04-26T23:49:25.649Z,97605.81
2019-04-26T23:51:57.687Z,97604.36
2019-04-26T23:54:32.265Z,97611.69
2019-04-26T23:57:03.388Z,97600.16
2019-04-26T23:59:35.334Z,97600.66
